createdAt,value
2023-05-15T00:00:49.108Z,49.41
2023-05-15T00:03:17.577Z,49.50
2023-05-15T00:05:45.339Z,49.73
2023-05-15T00:08:12.904Z,49.68
2023-05-15T00:10:44.911Z,49.53
2023-05-15T00:13:18.997Z,49.29
2023-05-15T00:15:46.529Z,49.72
2023-05-15T00:18:14.169Z,49.77
2023-05-15T00:20:41.672Z,49.66
2023-05-15T00:23:10.234Z,49.83
2023-05-15T00:25:37.761Z,49.74
2023-05-15T00:28:05.344Z,49.69
2023-05-15T00:30:32.862Z,49.54
2023-05-15T00:33:00.592Z,49.57
2023-05-15T00:35:28.128Z,49.43
2023-05-15T00:37:55.633Z,49.71
2023-05-15T00:40:26.044Z,49.56
2023-05-15T00:42:54.359Z,49.32
2023-05-15T00:45:23.438Z,49.25
2023-05-15T00:47:51.864Z,49.33
2023-05-15T00:50:20.901Z,49.11
2023-05-15T00:52:49.154Z,49.14
2023-05-15T00:55:16.851Z,49.19
2023-05-15T00:57:45.932Z,49.17
2023-05-15T01:00:16.796Z,49.05
2023-05-15T01:02:44.687Z,49.11
2023-05-15T01:05:12.282Z,49.38
2023-05-15T01:07:52.503Z,49.55
2023-05-15T01:10:21.206Z,49.68
2023-05-15T01:12:52.994Z,49.74
2023-05-15T01:15:20.705Z,49.87
2023-05-15T01:17:49.912Z,49.73
2023-05-15T01:20:18.943Z,49.73
2023-05-15T01:23:15.634Z,49.91
2023-05-15T01:26:19.935Z,49.75
2023-05-15T01:29:30.045Z,49.96
2023-05-15T01:32:04.052Z,49.96
2023-05-15T01:34:48.360Z,50.17
2023-05-15T01:37:22.227Z,50.53
2023-05-15T01:39:54.353Z,50.45
2023-05-15T01:42:27.442Z,50.44
2023-05-15T01:44:57.527Z,50.46
2023-05-15T01:47:41.905Z,50.50
2023-05-15T01:50:15.298Z,50.46
2023-05-15T01:52:50.604Z,50.90
2023-05-15T01:55:20.620Z,50.89
2023-05-15T01:57:50.356Z,51.13
2023-05-15T02:00:18.984Z,51.27
2023-05-15T02:02:47.695Z,51.27
2023-05-15T02:05:16.201Z,51.40
2023-05-15T02:07:45.195Z,51.31
2023-05-15T02:10:13.731Z,51.58
2023-05-15T02:12:42.347Z,51.50
2023-05-15T02:15:11.372Z,51.50
2023-05-15T02:17:39.465Z,51.68
2023-05-15T02:20:08.343Z,51.89
2023-05-15T02:22:38.720Z,51.94
2023-05-15T02:25:06.596Z,51.93
2023-05-15T02:27:59.339Z,51.96
2023-05-15T02:30:46.110Z,52.39
2023-05-15T02:33:50.182Z,52.60
2023-05-15T02:36:23.443Z,52.57
2023-05-15T02:38:53.688Z,52.54
2023-05-15T02:41:23.018Z,52.66
2023-05-15T02:43:52.273Z,52.50
2023-05-15T02:46:21.240Z,52.52
2023-05-15T02:48:50.558Z,52.47
2023-05-15T02:51:18.816Z,52.54
2023-05-15T02:53:46.459Z,52.62
2023-05-15T02:56:13.948Z,52.47
2023-05-15T02:58:42.085Z,52.45
2023-05-15T03:01:09.634Z,52.59
2023-05-15T03:03:37.243Z,53.07
2023-05-15T03:06:04.930Z,53.20
2023-05-15T03:08:32.467Z,53.08
2023-05-15T03:10:59.959Z,53.39
2023-05-15T03:13:27.511Z,53.57
2023-05-15T03:15:55.008Z,53.55
2023-05-15T03:18:22.874Z,53.80
2023-05-15T03:20:53.283Z,53.41
2023-05-15T03:23:20.811Z,53.24
2023-05-15T03:25:48.452Z,53.89
2023-05-15T03:28:15.988Z,53.97
2023-05-15T03:30:46.435Z,54.47
2023-05-15T03:33:13.940Z,54.24
2023-05-15T03:35:41.438Z,54.12
2023-05-15T03:38:09.009Z,53.98
2023-05-15T03:40:39.612Z,54.76
2023-05-15T03:43:07.184Z,54.42
2023-05-15T03:45:35.223Z,54.58
2023-05-15T03:48:02.763Z,54.74
2023-05-15T03:50:31.362Z,54.77
2023-05-15T03:53:00.276Z,54.99
2023-05-15T03:55:27.989Z,55.01
2023-05-15T03:57:55.594Z,55.03
2023-05-15T04:00:23.837Z,55.00
2023-05-15T04:02:51.630Z,55.46
2023-05-15T04:05:19.816Z,55.41
2023-05-15T04:07:47.781Z,55.60
2023-05-15T04:10:15.355Z,55.54
2023-05-15T04:12:42.831Z,55.71
2023-05-15T04:15:21.806Z,55.62
2023-05-15T04:17:53.556Z,55.65
2023-05-15T04:20:24.234Z,56.15
2023-05-15T04:22:52.678Z,55.92
2023-05-15T04:25:20.544Z,55.99
2023-05-15T04:27:49.169Z,56.13
2023-05-15T04:30:16.949Z,55.96
2023-05-15T04:32:44.553Z,55.72
2023-05-15T04:35:13.423Z,55.55
2023-05-15T04:37:42.750Z,55.61
2023-05-15T04:40:10.750Z,55.85
2023-05-15T04:42:39.505Z,55.53
2023-05-15T04:45:09.091Z,56.28
2023-05-15T04:47:37.368Z,56.48
2023-05-15T04:50:05.440Z,56.30
2023-05-15T04:52:33.262Z,56.12
2023-05-15T04:55:00.927Z,56.01
2023-05-15T04:57:28.426Z,55.85
2023-05-15T04:59:56.052Z,56.05
2023-05-15T05:02:24.372Z,56.14
2023-05-15T05:04:51.959Z,56.23
2023-05-15T05:07:19.512Z,56.11
2023-05-15T05:09:47.086Z,56.61
2023-05-15T05:12:14.664Z,56.71
2023-05-15T05:14:44.515Z,56.66
2023-05-15T05:17:12.108Z,56.54
2023-05-15T05:19:39.681Z,57.06
2023-05-15T05:22:07.577Z,57.09
2023-05-15T05:24:37.239Z,57.47
2023-05-15T05:27:05.443Z,57.53
2023-05-15T05:29:33.273Z,57.10
2023-05-15T05:32:01.218Z,56.55
2023-05-15T05:34:29.031Z,57.09
2023-05-15T05:36:56.519Z,57.03
2023-05-15T05:39:24.042Z,57.52
2023-05-15T05:41:51.607Z,56.85
2023-05-15T05:44:19.182Z,56.84
2023-05-15T05:46:46.849Z,57.24
2023-05-15T05:49:14.320Z,57.72
2023-05-15T05:51:41.874Z,57.72
2023-05-15T05:54:09.415Z,57.73
2023-05-15T05:56:36.970Z,57.64
2023-05-15T05:59:06.338Z,57.24
2023-05-15T06:01:34.058Z,57.03
2023-05-15T06:04:02.055Z,56.98
2023-05-15T06:06:29.898Z,57.07
2023-05-15T06:08:57.394Z,56.98
2023-05-15T06:11:25.665Z,56.63
2023-05-15T06:13:53.281Z,56.43
2023-05-15T06:16:21.493Z,56.42
2023-05-15T06:18:49.035Z,56.40
2023-05-15T06:21:16.562Z,56.23
2023-05-15T06:23:44.180Z,55.98
2023-05-15T06:26:11.737Z,55.80
2023-05-15T06:28:39.244Z,55.70
2023-05-15T06:31:06.803Z,56.17
2023-05-15T06:33:34.315Z,55.75
2023-05-15T06:36:02.233Z,55.41
2023-05-15T06:38:29.843Z,55.86
2023-05-15T06:40:57.318Z,55.57
2023-05-15T06:43:24.812Z,55.47
2023-05-15T06:45:52.344Z,55.33
2023-05-15T06:48:20.010Z,54.93
2023-05-15T06:50:48.182Z,54.93
2023-05-15T06:53:17.488Z,54.71
2023-05-15T06:55:44.988Z,54.84
2023-05-15T06:58:12.661Z,55.32
2023-05-15T07:00:40.266Z,54.94
2023-05-15T07:03:08.038Z,55.56
2023-05-15T07:05:35.665Z,55.20
2023-05-15T07:08:03.189Z,55.21
2023-05-15T07:10:30.697Z,54.59
2023-05-15T07:12:58.215Z,55.19
2023-05-15T07:15:25.768Z,54.60
2023-05-15T07:17:53.330Z,54.35
2023-05-15T07:20:20.992Z,54.16
2023-05-15T07:22:56.272Z,53.88
2023-05-15T07:25:25.837Z,54.07
2023-05-15T07:27:53.690Z,53.85
2023-05-15T07:30:21.362Z,54.14
2023-05-15T07:32:49.113Z,54.04
2023-05-15T07:35:16.924Z,53.53
2023-05-15T07:37:44.498Z,53.10
2023-05-15T07:40:12.417Z,53.67
2023-05-15T07:42:39.901Z,53.45
2023-05-15T07:45:09.281Z,52.91
2023-05-15T07:47:36.842Z,52.64
2023-05-15T07:50:04.797Z,52.22
2023-05-15T07:52:32.304Z,52.22
2023-05-15T07:54:59.813Z,52.66
2023-05-15T07:57:27.861Z,52.46
2023-05-15T07:59:55.949Z,52.11
2023-05-15T08:02:23.682Z,52.01
2023-05-15T08:04:51.987Z,52.32
2023-05-15T08:07:19.502Z,52.10
2023-05-15T08:09:46.963Z,52.12
2023-05-15T08:12:22.012Z,51.86
2023-05-15T08:14:55.163Z,51.09
2023-05-15T08:17:24.432Z,51.49
2023-05-15T08:19:52.886Z,50.87
2023-05-15T08:22:20.420Z,51.37
2023-05-15T08:24:48.902Z,50.60
2023-05-15T08:27:16.404Z,51.00
2023-05-15T08:29:44.070Z,51.01
2023-05-15T08:32:11.649Z,50.39
2023-05-15T08:34:39.252Z,49.99
2023-05-15T08:37:07.109Z,49.22
2023-05-15T08:39:34.749Z,48.79
2023-05-15T08:42:20.881Z,49.35
2023-05-15T08:44:48.585Z,49.24
2023-05-15T08:47:16.363Z,49.49
2023-05-15T08:50:07.522Z,49.69
2023-05-15T08:52:35.617Z,49.42
2023-05-15T08:55:04.497Z,49.53
2023-05-15T08:57:33.798Z,49.48
2023-05-15T09:00:02.690Z,49.09
2023-05-15T09:02:30.199Z,49.44
2023-05-15T09:04:57.994Z,49.61
2023-05-15T09:07:25.784Z,49.83
2023-05-15T09:09:54.437Z,49.73
2023-05-15T09:12:25.323Z,49.53
2023-05-15T09:15:12.126Z,49.99
2023-05-15T09:17:40.348Z,49.91
2023-05-15T09:20:24.041Z,49.71
2023-05-15T09:22:51.551Z,49.90
2023-05-15T09:25:44.401Z,49.57
2023-05-15T09:28:32.010Z,48.74
2023-05-15T09:31:05.517Z,49.00
2023-05-15T09:33:37.736Z,48.74
2023-05-15T09:36:07.425Z,48.56
2023-05-15T09:38:43.577Z,48.25
2023-05-15T09:41:11.475Z,48.26
2023-05-15T09:43:41.093Z,48.16
2023-05-15T09:46:09.475Z,47.99
2023-05-15T09:48:37.209Z,48.00
2023-05-15T09:51:14.205Z,48.15
2023-05-15T09:53:41.828Z,47.63
2023-05-15T09:56:10.479Z,48.40
2023-05-15T09:58:38.025Z,47.65
2023-05-15T10:01:11.537Z,47.59
2023-05-15T10:03:43.610Z,47.45
2023-05-15T10:06:18.948Z,47.29
2023-05-15T10:08:57.678Z,47.80
2023-05-15T10:11:25.612Z,45.74
2023-05-15T10:13:53.104Z,45.21
2023-05-15T10:16:22.463Z,45.66
2023-05-15T10:18:52.474Z,45.28
2023-05-15T10:21:22.984Z,44.97
2023-05-15T10:23:50.881Z,44.30
2023-05-15T10:26:24.570Z,44.35
2023-05-15T10:28:52.950Z,44.29
2023-05-15T10:31:20.701Z,44.31
2023-05-15T10:33:48.831Z,44.40
2023-05-15T10:36:17.467Z,43.08
2023-05-15T10:38:46.785Z,42.02
2023-05-15T10:41:20.866Z,42.65
2023-05-15T10:43:49.583Z,41.05
2023-05-15T10:46:17.487Z,41.10
2023-05-15T10:48:45.338Z,41.20
2023-05-15T10:51:26.575Z,38.92
2023-05-15T10:53:56.112Z,38.72
2023-05-15T10:56:31.367Z,39.30
2023-05-15T10:59:05.290Z,39.01
2023-05-15T11:01:35.456Z,38.19
2023-05-15T11:04:19.407Z,38.06
2023-05-15T11:06:48.330Z,38.12
2023-05-15T11:09:21.931Z,38.31
2023-05-15T11:11:52.877Z,38.76
2023-05-15T11:14:20.495Z,38.42
2023-05-15T11:16:54.284Z,37.89
2023-05-15T11:19:23.187Z,36.73
2023-05-15T11:22:16.013Z,36.45
2023-05-15T11:24:51.937Z,37.69
2023-05-15T11:27:23.335Z,38.11
2023-05-15T11:30:08.568Z,38.16
2023-05-15T11:32:43.902Z,38.11
2023-05-15T11:35:14.048Z,38.29
2023-05-15T11:37:51.882Z,38.71
2023-05-15T11:40:26.061Z,38.60
2023-05-15T11:43:32.665Z,38.07
2023-05-15T11:46:03.293Z,38.02
2023-05-15T11:48:37.463Z,35.75
2023-05-15T11:51:06.025Z,35.29
2023-05-15T11:53:34.005Z,35.64
2023-05-15T11:56:01.946Z,35.12
2023-05-15T11:58:29.596Z,35.46
2023-05-15T12:00:58.128Z,35.12
2023-05-15T12:03:32.436Z,34.84
2023-05-15T12:06:02.726Z,34.48
2023-05-15T12:08:36.025Z,34.26
2023-05-15T12:11:04.793Z,32.93
2023-05-15T12:13:34.001Z,33.19
2023-05-15T12:16:05.268Z,34.00
2023-05-15T12:18:33.710Z,34.09
2023-05-15T12:21:01.591Z,33.43
2023-05-15T12:23:29.269Z,33.04
2023-05-15T12:26:01.397Z,32.71
2023-05-15T12:28:30.594Z,32.74
2023-05-15T12:30:59.210Z,33.14
2023-05-15T12:33:27.036Z,32.69
2023-05-15T12:35:59.961Z,32.42
2023-05-15T12:38:29.009Z,32.45
2023-05-15T12:40:57.093Z,32.64
2023-05-15T12:43:26.009Z,33.07
2023-05-15T12:45:55.797Z,32.67
2023-05-15T12:48:28.836Z,31.90
2023-05-15T12:51:03.849Z,30.67
2023-05-15T12:53:34.313Z,30.91
2023-05-15T12:56:02.365Z,32.56
2023-05-15T12:58:30.096Z,33.28
2023-05-15T13:00:58.666Z,34.16
2023-05-15T13:03:27.846Z,34.74
2023-05-15T13:05:55.798Z,35.05
2023-05-15T13:08:23.398Z,34.69
2023-05-15T13:10:59.115Z,35.47
2023-05-15T13:13:50.151Z,34.96
2023-05-15T13:16:23.745Z,35.15
2023-05-15T13:18:51.736Z,34.91
2023-05-15T13:21:19.625Z,33.79
2023-05-15T13:23:47.253Z,33.71
2023-05-15T13:26:14.955Z,35.19
2023-05-15T13:28:42.535Z,33.94
2023-05-15T13:31:10.162Z,34.37
2023-05-15T13:33:37.721Z,34.45
2023-05-15T13:36:05.784Z,34.47
2023-05-15T13:38:33.421Z,34.68
2023-05-15T13:41:01.056Z,34.85
2023-05-15T13:43:28.618Z,34.53
2023-05-15T13:45:56.206Z,34.22
2023-05-15T13:48:23.727Z,33.50
2023-05-15T13:50:51.286Z,32.34
2023-05-15T13:53:18.829Z,32.24
2023-05-15T13:55:46.981Z,31.16
2023-05-15T13:58:14.712Z,30.96
2023-05-15T14:00:44.154Z,30.96
2023-05-15T14:03:14.932Z,30.56
2023-05-15T14:05:43.032Z,31.32
2023-05-15T14:08:10.938Z,31.22
2023-05-15T14:10:38.486Z,31.07
2023-05-15T14:13:06.347Z,31.60
2023-05-15T14:15:33.842Z,31.09
2023-05-15T14:18:01.383Z,31.74
2023-05-15T14:20:29.008Z,31.54
2023-05-15T14:22:56.676Z,32.14
2023-05-15T14:25:24.412Z,31.95
2023-05-15T14:27:52.319Z,31.33
2023-05-15T14:30:21.874Z,31.31
2023-05-15T14:32:49.443Z,30.94
2023-05-15T14:35:16.964Z,30.55
2023-05-15T14:37:45.151Z,30.55
2023-05-15T14:40:13.245Z,30.96
2023-05-15T14:42:40.860Z,31.22
2023-05-15T14:45:09.160Z,31.94
2023-05-15T14:47:36.683Z,32.26
2023-05-15T14:50:04.883Z,34.76
2023-05-15T14:52:32.454Z,37.02
2023-05-15T14:55:09.166Z,38.04
2023-05-15T14:57:38.489Z,37.16
2023-05-15T15:00:08.024Z,37.25
2023-05-15T15:02:35.797Z,39.21
2023-05-15T15:05:04.422Z,38.93
2023-05-15T15:07:51.900Z,39.21
2023-05-15T15:10:19.431Z,40.03
2023-05-15T15:12:46.938Z,40.88
2023-05-15T15:15:14.436Z,40.79
2023-05-15T15:17:41.944Z,40.46
2023-05-15T15:20:11.564Z,41.49
2023-05-15T15:22:42.177Z,41.98
2023-05-15T15:25:10.014Z,42.96
2023-05-15T15:27:37.676Z,42.52
2023-05-15T15:30:07.229Z,43.36
2023-05-15T15:32:36.194Z,43.62
2023-05-15T15:35:07.226Z,43.64
2023-05-15T15:37:35.985Z,43.49
2023-05-15T15:40:06.137Z,43.27
2023-05-15T15:42:34.678Z,42.90
2023-05-15T15:45:02.904Z,43.49
2023-05-15T15:47:31.789Z,44.63
2023-05-15T15:49:59.724Z,44.91
2023-05-15T15:52:27.835Z,46.36
2023-05-15T15:54:55.347Z,46.66
2023-05-15T15:57:23.166Z,48.08
2023-05-15T15:59:50.728Z,48.52
2023-05-15T16:02:18.261Z,47.64
2023-05-15T16:04:45.761Z,46.51
2023-05-15T16:07:13.267Z,46.27
2023-05-15T16:09:40.806Z,46.00
2023-05-15T16:12:08.549Z,45.48
2023-05-15T16:14:36.102Z,46.27
2023-05-15T16:17:04.157Z,46.26
2023-05-15T16:19:32.758Z,46.35
2023-05-15T16:22:00.349Z,46.31
2023-05-15T16:24:27.964Z,45.72
2023-05-15T16:26:56.471Z,45.20
2023-05-15T16:29:23.991Z,45.23
2023-05-15T16:31:52.314Z,44.96
2023-05-15T16:34:20.711Z,44.80
2023-05-15T16:36:48.299Z,45.45
2023-05-15T16:39:15.984Z,44.86
2023-05-15T16:41:43.617Z,44.64
2023-05-15T16:44:11.317Z,44.30
2023-05-15T16:46:38.972Z,44.72
2023-05-15T16:49:07.186Z,44.18
2023-05-15T16:51:34.757Z,44.26
2023-05-15T16:54:02.988Z,43.63
2023-05-15T16:56:30.569Z,43.07
2023-05-15T16:58:58.057Z,43.49
2023-05-15T17:01:25.702Z,43.38
2023-05-15T17:03:53.596Z,43.43
2023-05-15T17:06:21.425Z,43.55
2023-05-15T17:08:48.967Z,43.61
2023-05-15T17:11:16.537Z,44.03
2023-05-15T17:13:44.909Z,44.42
2023-05-15T17:16:12.490Z,44.88
2023-05-15T17:18:40.123Z,44.67
2023-05-15T17:21:07.685Z,44.75
2023-05-15T17:23:35.799Z,44.56
2023-05-15T17:26:04.167Z,44.86
2023-05-15T17:28:31.676Z,45.08
2023-05-15T17:30:59.708Z,45.30
2023-05-15T17:33:27.247Z,45.70
2023-05-15T17:35:54.837Z,46.32
2023-05-15T17:38:22.324Z,47.63
2023-05-15T17:40:49.830Z,48.28
2023-05-15T17:43:17.630Z,48.83
2023-05-15T17:45:45.725Z,49.31
2023-05-15T17:48:13.345Z,49.42
2023-05-15T17:50:41.997Z,49.92
2023-05-15T17:53:09.516Z,49.96
2023-05-15T17:55:37.176Z,50.07
2023-05-15T17:58:04.744Z,50.20
2023-05-15T18:00:32.255Z,50.68
2023-05-15T18:03:01.062Z,51.35
2023-05-15T18:05:28.870Z,51.57
2023-05-15T18:07:59.373Z,52.13
2023-05-15T18:10:26.865Z,52.57
2023-05-15T18:12:54.331Z,52.77
2023-05-15T18:15:21.851Z,53.04
2023-05-15T18:17:49.810Z,52.93
2023-05-15T18:20:17.644Z,53.35
2023-05-15T18:22:45.950Z,53.18
2023-05-15T18:25:13.481Z,53.08
2023-05-15T18:27:41.192Z,53.52
2023-05-15T18:30:09.463Z,53.03
2023-05-15T18:32:37.195Z,52.14
2023-05-15T18:35:05.101Z,52.11
2023-05-15T18:37:32.806Z,51.53
2023-05-15T18:40:00.495Z,51.53
2023-05-15T18:42:28.924Z,51.34
2023-05-15T18:44:56.424Z,50.91
2023-05-15T18:47:24.035Z,50.76
2023-05-15T18:49:51.963Z,50.59
2023-05-15T18:52:19.990Z,50.59
2023-05-15T18:54:48.141Z,50.06
2023-05-15T18:57:15.682Z,50.38
2023-05-15T18:59:44.356Z,49.98
2023-05-15T19:02:13.205Z,49.94
2023-05-15T19:04:40.736Z,50.16
2023-05-15T19:07:08.250Z,50.14
2023-05-15T19:09:35.848Z,50.18
2023-05-15T19:12:03.421Z,50.58
2023-05-15T19:14:32.048Z,50.46
2023-05-15T19:16:59.914Z,50.31
2023-05-15T19:19:27.555Z,49.93
2023-05-15T19:21:55.040Z,50.25
2023-05-15T19:24:22.742Z,50.04
2023-05-15T19:26:50.250Z,50.09
2023-05-15T19:29:17.815Z,50.67
2023-05-15T19:31:45.605Z,50.69
2023-05-15T19:34:13.567Z,50.98
2023-05-15T19:36:41.620Z,51.22
2023-05-15T19:39:09.093Z,51.15
2023-05-15T19:41:36.627Z,51.44
2023-05-15T19:44:04.867Z,51.58
2023-05-15T19:46:32.504Z,52.03
2023-05-15T19:48:59.991Z,52.16
2023-05-15T19:51:27.579Z,52.26
2023-05-15T19:53:56.517Z,52.39
2023-05-15T19:56:25.253Z,52.47
2023-05-15T19:58:52.921Z,52.49
2023-05-15T20:01:20.418Z,52.63
2023-05-15T20:03:48.002Z,52.82
2023-05-15T20:06:15.709Z,52.57
2023-05-15T20:08:43.294Z,52.85
2023-05-15T20:11:11.103Z,52.99
2023-05-15T20:13:39.145Z,53.04
2023-05-15T20:16:10.300Z,52.94
2023-05-15T20:18:39.557Z,52.94
2023-05-15T20:21:07.158Z,52.83
2023-05-15T20:23:34.744Z,52.80
2023-05-15T20:26:03.238Z,53.09
2023-05-15T20:28:30.731Z,52.87
2023-05-15T20:30:59.749Z,53.11
2023-05-15T20:33:27.510Z,53.12
2023-05-15T20:35:55.168Z,52.99
2023-05-15T20:38:25.237Z,53.00
2023-05-15T20:40:52.953Z,52.97
2023-05-15T20:43:20.762Z,52.72
2023-05-15T20:45:48.295Z,52.90
2023-05-15T20:48:16.037Z,53.17
2023-05-15T20:50:43.531Z,53.38
2023-05-15T20:53:11.214Z,53.56
2023-05-15T20:55:38.848Z,53.43
2023-05-15T20:58:06.346Z,53.42
2023-05-15T21:00:33.903Z,53.48
2023-05-15T21:03:01.596Z,53.25
2023-05-15T21:05:29.183Z,52.99
2023-05-15T21:07:57.228Z,52.79
2023-05-15T21:10:24.935Z,52.66
2023-05-15T21:12:52.591Z,52.88
2023-05-15T21:15:20.111Z,52.92
2023-05-15T21:17:47.665Z,53.04
2023-05-15T21:20:15.307Z,52.96
2023-05-15T21:22:42.851Z,52.97
2023-05-15T21:25:11.119Z,52.58
2023-05-15T21:27:38.660Z,52.45
2023-05-15T21:30:07.100Z,52.48
2023-05-15T21:32:34.591Z,52.57
2023-05-15T21:35:02.112Z,52.34
2023-05-15T21:37:29.611Z,52.45
2023-05-15T21:39:57.222Z,52.26
2023-05-15T21:42:24.701Z,52.54
2023-05-15T21:44:52.199Z,52.38
2023-05-15T21:47:19.741Z,52.84
2023-05-15T21:49:47.368Z,52.88
2023-05-15T21:52:14.852Z,53.25
2023-05-15T21:54:43.826Z,53.48
2023-05-15T21:57:11.392Z,53.53
2023-05-15T21:59:38.875Z,53.83
2023-05-15T22:02:07.384Z,53.91
2023-05-15T22:04:35.150Z,54.05
2023-05-15T22:07:02.679Z,54.23
2023-05-15T22:09:30.193Z,54.16
2023-05-15T22:11:57.677Z,54.46
2023-05-15T22:14:25.325Z,54.37
2023-05-15T22:16:52.912Z,54.63
2023-05-15T22:19:32.595Z,54.64
2023-05-15T22:22:03.293Z,54.97
2023-05-15T22:24:30.782Z,54.98
2023-05-15T22:26:58.320Z,55.26
2023-05-15T22:29:26.565Z,55.34
2023-05-15T22:31:54.185Z,55.25
2023-05-15T22:34:21.769Z,55.86
2023-05-15T22:36:49.251Z,55.66
2023-05-15T22:39:16.782Z,55.91
2023-05-15T22:41:44.310Z,56.52
2023-05-15T22:44:11.971Z,56.79
2023-05-15T22:46:39.912Z,56.87
2023-05-15T22:49:12.354Z,56.79
2023-05-15T22:51:39.857Z,57.26
2023-05-15T22:54:07.947Z,57.62
2023-05-15T22:56:35.430Z,56.75
2023-05-15T22:59:02.914Z,56.92
2023-05-15T23:01:31.461Z,57.23
2023-05-15T23:03:59.058Z,56.90
2023-05-15T23:06:26.578Z,56.84
2023-05-15T23:08:54.064Z,56.65
2023-05-15T23:11:21.903Z,56.62
2023-05-15T23:13:49.399Z,56.63
2023-05-15T23:16:17.009Z,56.63
2023-05-15T23:18:44.610Z,56.41
2023-05-15T23:21:12.250Z,56.50
2023-05-15T23:23:40.066Z,56.25
2023-05-15T23:26:07.798Z,56.08
2023-05-15T23:28:35.270Z,55.75
2023-05-15T23:31:02.822Z,56.11
2023-05-15T23:33:30.539Z,56.42
2023-05-15T23:35:58.041Z,56.45
2023-05-15T23:38:26.281Z,56.63
2023-05-15T23:40:53.967Z,56.65
2023-05-15T23:43:21.577Z,56.63
2023-05-15T23:45:49.106Z,56.67
2023-05-15T23:48:16.678Z,56.84
2023-05-15T23:50:45.116Z,56.76
2023-05-15T23:53:12.659Z,56.78
2023-05-15T23:55:40.273Z,56.80
2023-05-15T23:58:07.812Z,57.01
